Terminal Aerodrome Forecast
Issued by NWS

Current Version | Previous Version | Graphics & Text | Print | Product List | Glossary On
Versions: 1 2 3 4 5 6 7 8 9 10 11 12 13 14 15 16 17 18
010
FTUS41 KILN 122058 AAA
TAFLUK
TAF AMD
KLUK 122058Z 1221/1318 27010G20KT P6SM OVC040
     FM122300 27015G25KT 4SM -SHSN OVC025
     FM130200 32015G25KT P6SM -SHSN BKN025
     FM130600 32010KT P6SM BKN025=

USA.gov is the U.S. government's official web portal to all federal, state and local government web resources and services.